sensor_id;sensor_type;location;lat;lon;timestamp;temperature;humidity
20862;DHT22;10591;52.532;13.348;2022-09-09T00:04:36;15.12;89.44
20862;DHT22;10591;52.532;13.348;2022-09-09T00:07:31;15.12;89.47
20862;DHT22;10591;52.532;13.348;2022-09-09T00:18:46;15.04;89.47
20862;DHT22;10591;52.532;13.348;2022-09-09T00:21:07;15.02;89.42
20862;DHT22;10591;52.532;13.348;2022-09-09T00:23:40;14.98;89.48
20862;DHT22;10591;52.532;13.348;2022-09-09T00:26:20;14.99;89.46
20862;DHT22;10591;52.532;13.348;2022-09-09T00:29:10;15.01;89.44
20862;DHT22;10591;52.532;13.348;2022-09-09T00:31:29;14.98;89.46
20862;DHT22;10591;52.532;13.348;2022-09-09T00:34:08;15.02;89.42
20862;DHT22;10591;52.532;13.348;2022-09-09T00:36:38;14.98;89.45
20862;DHT22;10591;52.532;13.348;2022-09-09T00:39:55;14.93;89.49
20862;DHT22;10591;52.532;13.348;2022-09-09T00:42:03;14.88;89.52
20862;DHT22;10591;52.532;13.348;2022-09-09T00:44:35;14.87;89.52
20862;DHT22;10591;52.532;13.348;2022-09-09T00:47:38;14.91;89.48
20862;DHT22;10591;52.532;13.348;2022-09-09T00:50:15;14.90;89.44
20862;DHT22;10591;52.532;13.348;2022-09-09T00:53:02;14.90;89.44
20862;DHT22;10591;52.532;13.348;2022-09-09T00:58:11;14.86;89.47
20862;DHT22;10591;52.532;13.348;2022-09-09T01:00:50;14.86;89.52
20862;DHT22;10591;52.532;13.348;2022-09-09T01:06:32;14.82;89.51
20862;DHT22;10591;52.532;13.348;2022-09-09T01:09:13;14.87;89.45
20862;DHT22;10591;52.532;13.348;2022-09-09T01:12:01;14.80;89.42
20862;DHT22;10591;52.532;13.348;2022-09-09T01:17:34;14.84;89.42
20862;DHT22;10591;52.532;13.348;2022-09-09T01:28:54;14.82;89.21
20862;DHT22;10591;52.532;13.348;2022-09-09T01:31:36;14.72;89.25
20862;DHT22;10591;52.532;13.348;2022-09-09T01:34:14;14.76;89.26
20862;DHT22;10591;52.532;13.348;2022-09-09T01:39:22;14.76;89.26
20862;DHT22;10591;52.532;13.348;2022-09-09T01:41:53;14.70;89.22
20862;DHT22;10591;52.532;13.348;2022-09-09T01:44:25;14.70;89.23
20862;DHT22;10591;52.532;13.348;2022-09-09T01:46:57;14.68;89.20
20862;DHT22;10591;52.532;13.348;2022-09-09T01:49:27;14.69;89.09
20862;DHT22;10591;52.532;13.348;2022-09-09T01:51:58;14.65;89.23
20862;DHT22;10591;52.532;13.348;2022-09-09T01:54:31;14.60;89.18
20862;DHT22;10591;52.532;13.348;2022-09-09T02:00:04;14.54;89.25
20862;DHT22;10591;52.532;13.348;2022-09-09T02:05:38;14.53;89.32
20862;DHT22;10591;52.532;13.348;2022-09-09T02:08:11;14.54;89.28
20862;DHT22;10591;52.532;13.348;2022-09-09T02:13:18;14.50;89.22
20862;DHT22;10591;52.532;13.348;2022-09-09T02:18:51;14.56;89.16
20862;DHT22;10591;52.532;13.348;2022-09-09T02:21:23;14.49;89.22
20862;DHT22;10591;52.532;13.348;2022-09-09T02:23:56;14.49;89.19
20862;DHT22;10591;52.532;13.348;2022-09-09T02:26:28;14.54;89.07
20862;DHT22;10591;52.532;13.348;2022-09-09T02:29:01;14.49;89.10
20862;DHT22;10591;52.532;13.348;2022-09-09T02:31:34;14.47;89.10
20862;DHT22;10591;52.532;13.348;2022-09-09T02:34:06;14.44;89.09
20862;DHT22;10591;52.532;13.348;2022-09-09T02:36:41;14.38;89.17
20862;DHT22;10591;52.532;13.348;2022-09-09T02:39:13;14.46;89.12
20862;DHT22;10591;52.532;13.348;2022-09-09T02:41:44;14.34;89.16
20862;DHT22;10591;52.532;13.348;2022-09-09T02:44:16;14.40;89.11
20862;DHT22;10591;52.532;13.348;2022-09-09T02:47:05;14.32;89.16
20862;DHT22;10591;52.532;13.348;2022-09-09T02:52:25;14.28;89.19
20862;DHT22;10591;52.532;13.348;2022-09-09T02:54:54;14.32;89.17
20862;DHT22;10591;52.532;13.348;2022-09-09T02:57:27;14.36;89.16
20862;DHT22;10591;52.532;13.348;2022-09-09T02:59:59;14.36;89.05
20862;DHT22;10591;52.532;13.348;2022-09-09T03:02:30;14.47;88.96
20862;DHT22;10591;52.532;13.348;2022-09-09T03:05:01;14.37;88.83
20862;DHT22;10591;52.532;13.348;2022-09-09T03:07:34;14.34;88.93
20862;DHT22;10591;52.532;13.348;2022-09-09T03:10:05;14.31;89.02
20862;DHT22;10591;52.532;13.348;2022-09-09T03:12:35;14.24;89.16
20862;DHT22;10591;52.532;13.348;2022-09-09T03:15:07;14.30;89.19
20862;DHT22;10591;52.532;13.348;2022-09-09T03:17:37;14.25;89.25
20862;DHT22;10591;52.532;13.348;2022-09-09T03:20:09;14.28;89.24
20862;DHT22;10591;52.532;13.348;2022-09-09T03:22:39;14.21;89.19
20862;DHT22;10591;52.532;13.348;2022-09-09T03:25:09;14.26;89.09
20862;DHT22;10591;52.532;13.348;2022-09-09T03:27:40;14.25;89.21
20862;DHT22;10591;52.532;13.348;2022-09-09T03:30:11;14.23;89.13
20862;DHT22;10591;52.532;13.348;2022-09-09T03:32:43;14.18;89.12
20862;DHT22;10591;52.532;13.348;2022-09-09T03:35:15;14.20;89.08
20862;DHT22;10591;52.532;13.348;2022-09-09T03:37:46;14.17;89.11
20862;DHT22;10591;52.532;13.348;2022-09-09T03:40:17;14.18;89.22
20862;DHT22;10591;52.532;13.348;2022-09-09T03:42:49;14.16;89.25
20862;DHT22;10591;52.532;13.348;2022-09-09T03:45:19;14.16;89.30
20862;DHT22;10591;52.532;13.348;2022-09-09T03:47:49;14.28;89.10
20862;DHT22;10591;52.532;13.348;2022-09-09T03:50:20;14.22;88.92
20862;DHT22;10591;52.532;13.348;2022-09-09T03:52:50;14.30;88.78
20862;DHT22;10591;52.532;13.348;2022-09-09T03:55:21;14.22;88.97
20862;DHT22;10591;52.532;13.348;2022-09-09T03:57:51;14.17;88.89
20862;DHT22;10591;52.532;13.348;2022-09-09T04:00:22;14.21;88.94
20862;DHT22;10591;52.532;13.348;2022-09-09T04:02:52;14.18;88.80
20862;DHT22;10591;52.532;13.348;2022-09-09T04:05:24;14.24;88.90
20862;DHT22;10591;52.532;13.348;2022-09-09T04:07:55;14.11;88.82
20862;DHT22;10591;52.532;13.348;2022-09-09T04:10:25;14.13;88.78
20862;DHT22;10591;52.532;13.348;2022-09-09T04:12:56;14.10;88.64
20862;DHT22;10591;52.532;13.348;2022-09-09T04:15:26;14.26;88.68
20862;DHT22;10591;52.532;13.348;2022-09-09T04:17:57;14.24;88.14
20862;DHT22;10591;52.532;13.348;2022-09-09T04:20:28;14.18;88.42
20862;DHT22;10591;52.532;13.348;2022-09-09T04:22:59;14.29;88.13
20862;DHT22;10591;52.532;13.348;2022-09-09T04:25:30;14.12;88.46
20862;DHT22;10591;52.532;13.348;2022-09-09T04:28:00;14.27;88.27
20862;DHT22;10591;52.532;13.348;2022-09-09T04:30:32;14.18;88.18
20862;DHT22;10591;52.532;13.348;2022-09-09T04:33:04;14.11;88.32
20862;DHT22;10591;52.532;13.348;2022-09-09T04:35:34;14.13;88.37
20862;DHT22;10591;52.532;13.348;2022-09-09T04:38:05;14.19;88.31
20862;DHT22;10591;52.532;13.348;2022-09-09T04:40:39;14.16;88.23
20862;DHT22;10591;52.532;13.348;2022-09-09T04:43:11;14.16;88.36
20862;DHT22;10591;52.532;13.348;2022-09-09T04:45:43;14.12;88.30
20862;DHT22;10591;52.532;13.348;2022-09-09T04:48:14;14.06;88.40
20862;DHT22;10591;52.532;13.348;2022-09-09T04:50:56;14.22;88.44
20862;DHT22;10591;52.532;13.348;2022-09-09T04:53:27;14.02;88.30
20862;DHT22;10591;52.532;13.348;2022-09-09T04:56:05;14.10;88.37
20862;DHT22;10591;52.532;13.348;2022-09-09T04:58:37;14.13;88.16
20862;DHT22;10591;52.532;13.348;2022-09-09T05:01:09;14.28;88.11
20862;DHT22;10591;52.532;13.348;2022-09-09T05:03:40;14.32;87.96
20862;DHT22;10591;52.532;13.348;2022-09-09T05:06:19;14.34;87.77
20862;DHT22;10591;52.532;13.348;2022-09-09T05:08:45;14.29;87.90
20862;DHT22;10591;52.532;13.348;2022-09-09T05:11:23;14.22;88.02
20862;DHT22;10591;52.532;13.348;2022-09-09T05:13:55;14.30;88.09
20862;DHT22;10591;52.532;13.348;2022-09-09T05:16:26;14.34;87.92
20862;DHT22;10591;52.532;13.348;2022-09-09T05:18:57;14.38;87.57
20862;DHT22;10591;52.532;13.348;2022-09-09T05:21:28;14.34;87.72
20862;DHT22;10591;52.532;13.348;2022-09-09T05:24:00;14.48;87.43
20862;DHT22;10591;52.532;13.348;2022-09-09T05:26:30;14.42;87.70
20862;DHT22;10591;52.532;13.348;2022-09-09T05:29:02;14.42;87.65
20862;DHT22;10591;52.532;13.348;2022-09-09T05:31:33;14.39;87.88
20862;DHT22;10591;52.532;13.348;2022-09-09T05:34:04;14.41;87.77
20862;DHT22;10591;52.532;13.348;2022-09-09T05:36:34;14.45;87.61
20862;DHT22;10591;52.532;13.348;2022-09-09T05:39:05;14.41;87.80
20862;DHT22;10591;52.532;13.348;2022-09-09T05:41:35;14.45;87.69
20862;DHT22;10591;52.532;13.348;2022-09-09T05:44:06;14.47;87.74
20862;DHT22;10591;52.532;13.348;2022-09-09T05:46:37;14.45;87.94
20862;DHT22;10591;52.532;13.348;2022-09-09T05:49:07;14.44;87.87
20862;DHT22;10591;52.532;13.348;2022-09-09T05:51:38;14.52;87.72
20862;DHT22;10591;52.532;13.348;2022-09-09T05:54:09;14.50;88.00
20862;DHT22;10591;52.532;13.348;2022-09-09T05:56:42;14.55;88.01
20862;DHT22;10591;52.532;13.348;2022-09-09T05:59:14;14.60;87.56
20862;DHT22;10591;52.532;13.348;2022-09-09T06:01:45;14.65;87.43
20862;DHT22;10591;52.532;13.348;2022-09-09T06:04:16;14.70;87.14
20862;DHT22;10591;52.532;13.348;2022-09-09T06:06:47;14.86;86.99
20862;DHT22;10591;52.532;13.348;2022-09-09T06:09:18;14.98;86.81
20862;DHT22;10591;52.532;13.348;2022-09-09T06:11:48;15.03;86.39
20862;DHT22;10591;52.532;13.348;2022-09-09T06:14:18;15.00;86.62
20862;DHT22;10591;52.532;13.348;2022-09-09T06:16:49;15.01;86.57
20862;DHT22;10591;52.532;13.348;2022-09-09T06:19:20;15.02;86.48
20862;DHT22;10591;52.532;13.348;2022-09-09T06:21:50;15.02;86.52
20862;DHT22;10591;52.532;13.348;2022-09-09T06:24:20;15.07;86.56
20862;DHT22;10591;52.532;13.348;2022-09-09T06:26:51;15.10;86.62
20862;DHT22;10591;52.532;13.348;2022-09-09T06:29:23;15.08;86.49
20862;DHT22;10591;52.532;13.348;2022-09-09T06:31:53;15.15;85.85
20862;DHT22;10591;52.532;13.348;2022-09-09T06:34:24;15.20;85.69
20862;DHT22;10591;52.532;13.348;2022-09-09T06:36:54;15.20;86.05
20862;DHT22;10591;52.532;13.348;2022-09-09T06:39:27;15.27;85.45
20862;DHT22;10591;52.532;13.348;2022-09-09T06:41:57;15.27;85.80
20862;DHT22;10591;52.532;13.348;2022-09-09T06:44:30;15.38;85.08
20862;DHT22;10591;52.532;13.348;2022-09-09T06:47:02;15.39;85.37
20862;DHT22;10591;52.532;13.348;2022-09-09T06:49:33;15.38;85.23
20862;DHT22;10591;52.532;13.348;2022-09-09T06:52:04;15.50;84.63
20862;DHT22;10591;52.532;13.348;2022-09-09T06:54:34;15.55;85.08
20862;DHT22;10591;52.532;13.348;2022-09-09T06:57:06;15.65;84.90
20862;DHT22;10591;52.532;13.348;2022-09-09T06:59:38;15.80;84.31
20862;DHT22;10591;52.532;13.348;2022-09-09T07:02:09;15.93;83.95
20862;DHT22;10591;52.532;13.348;2022-09-09T07:04:39;15.98;84.26
20862;DHT22;10591;52.532;13.348;2022-09-09T07:07:10;16.04;83.24
20862;DHT22;10591;52.532;13.348;2022-09-09T07:09:42;16.02;82.65
20862;DHT22;10591;52.532;13.348;2022-09-09T07:12:14;16.16;82.73
20862;DHT22;10591;52.532;13.348;2022-09-09T07:14:44;16.36;81.83
20862;DHT22;10591;52.532;13.348;2022-09-09T07:17:15;16.47;81.52
20862;DHT22;10591;52.532;13.348;2022-09-09T07:19:45;16.56;81.15
20862;DHT22;10591;52.532;13.348;2022-09-09T07:22:17;16.66;81.04
20862;DHT22;10591;52.532;13.348;2022-09-09T07:24:49;16.90;80.24
20862;DHT22;10591;52.532;13.348;2022-09-09T07:27:19;16.94;79.99
20862;DHT22;10591;52.532;13.348;2022-09-09T07:29:50;17.10;78.56
20862;DHT22;10591;52.532;13.348;2022-09-09T07:32:23;17.26;79.22
20862;DHT22;10591;52.532;13.348;2022-09-09T07:34:54;17.50;78.72
20862;DHT22;10591;52.532;13.348;2022-09-09T07:37:25;17.66;77.69
20862;DHT22;10591;52.532;13.348;2022-09-09T07:39:55;17.90;77.59
20862;DHT22;10591;52.532;13.348;2022-09-09T07:42:26;18.00;76.38
20862;DHT22;10591;52.532;13.348;2022-09-09T07:44:57;18.27;75.16
20862;DHT22;10591;52.532;13.348;2022-09-09T07:47:28;18.27;75.03
20862;DHT22;10591;52.532;13.348;2022-09-09T07:49:59;18.37;74.96
20862;DHT22;10591;52.532;13.348;2022-09-09T07:52:29;18.51;73.30
20862;DHT22;10591;52.532;13.348;2022-09-09T07:55:00;18.37;74.51
20862;DHT22;10591;52.532;13.348;2022-09-09T07:57:31;18.33;75.09
20862;DHT22;10591;52.532;13.348;2022-09-09T08:00:03;18.35;75.28
20862;DHT22;10591;52.532;13.348;2022-09-09T08:02:34;18.37;75.07
20862;DHT22;10591;52.532;13.348;2022-09-09T08:05:04;18.36;74.99
20862;DHT22;10591;52.532;13.348;2022-09-09T08:07:35;18.38;75.53
20862;DHT22;10591;52.532;13.348;2022-09-09T08:10:06;18.41;75.46
20862;DHT22;10591;52.532;13.348;2022-09-09T08:12:37;18.37;73.44
20862;DHT22;10591;52.532;13.348;2022-09-09T08:15:13;18.48;73.99
20862;DHT22;10591;52.532;13.348;2022-09-09T08:17:43;18.50;74.37
20862;DHT22;10591;52.532;13.348;2022-09-09T08:20:13;18.50;75.15
20862;DHT22;10591;52.532;13.348;2022-09-09T08:22:44;18.62;74.26
20862;DHT22;10591;52.532;13.348;2022-09-09T08:25:14;18.76;73.16
20862;DHT22;10591;52.532;13.348;2022-09-09T08:27:45;18.66;73.74
20862;DHT22;10591;52.532;13.348;2022-09-09T08:30:15;18.47;74.19
20862;DHT22;10591;52.532;13.348;2022-09-09T08:32:46;18.49;74.11
20862;DHT22;10591;52.532;13.348;2022-09-09T08:35:18;18.50;75.03
20862;DHT22;10591;52.532;13.348;2022-09-09T08:37:53;18.58;74.18
20862;DHT22;10591;52.532;13.348;2022-09-09T08:40:26;18.72;73.94
20862;DHT22;10591;52.532;13.348;2022-09-09T08:42:57;18.80;73.65
20862;DHT22;10591;52.532;13.348;2022-09-09T08:45:34;18.82;73.63
20862;DHT22;10591;52.532;13.348;2022-09-09T08:48:19;18.95;73.17
20862;DHT22;10591;52.532;13.348;2022-09-09T08:50:49;18.94;72.95
20862;DHT22;10591;52.532;13.348;2022-09-09T08:53:23;18.97;72.25
20862;DHT22;10591;52.532;13.348;2022-09-09T08:55:57;19.05;72.15
20862;DHT22;10591;52.532;13.348;2022-09-09T08:58:33;19.10;71.37
20862;DHT22;10591;52.532;13.348;2022-09-09T09:12:25;19.22;72.32
20862;DHT22;10591;52.532;13.348;2022-09-09T09:14:56;19.34;72.02
20862;DHT22;10591;52.532;13.348;2022-09-09T09:17:30;19.38;71.72
20862;DHT22;10591;52.532;13.348;2022-09-09T09:20:05;19.59;70.52
20862;DHT22;10591;52.532;13.348;2022-09-09T09:22:39;19.80;69.97
20862;DHT22;10591;52.532;13.348;2022-09-09T09:25:21;19.88;70.43
20862;DHT22;10591;52.532;13.348;2022-09-09T09:28:00;20.02;69.07
20862;DHT22;10591;52.532;13.348;2022-09-09T09:30:35;20.22;68.96
20862;DHT22;10591;52.532;13.348;2022-09-09T09:35:51;20.34;67.82
20862;DHT22;10591;52.532;13.348;2022-09-09T09:38:25;20.51;67.11
20862;DHT22;10591;52.532;13.348;2022-09-09T09:40:59;20.27;68.63
20862;DHT22;10591;52.532;13.348;2022-09-09T09:43:34;20.23;71.20
20862;DHT22;10591;52.532;13.348;2022-09-09T09:46:18;20.24;68.12
20862;DHT22;10591;52.532;13.348;2022-09-09T09:48:40;20.24;68.12
20862;DHT22;10591;52.532;13.348;2022-09-09T09:51:13;20.14;68.21
20862;DHT22;10591;52.532;13.348;2022-09-09T09:53:45;20.00;68.25
20862;DHT22;10591;52.532;13.348;2022-09-09T09:56:16;20.06;69.29
20862;DHT22;10591;52.532;13.348;2022-09-09T09:58:49;20.20;68.76
20862;DHT22;10591;52.532;13.348;2022-09-09T10:01:28;20.19;67.46
20862;DHT22;10591;52.532;13.348;2022-09-09T10:04:16;20.04;68.56
20862;DHT22;10591;52.532;13.348;2022-09-09T10:06:49;20.11;69.47
20862;DHT22;10591;52.532;13.348;2022-09-09T10:09:30;20.21;68.76
20862;DHT22;10591;52.532;13.348;2022-09-09T10:17:43;20.57;66.90
20862;DHT22;10591;52.532;13.348;2022-09-09T10:28:42;21.00;65.79
20862;DHT22;10591;52.532;13.348;2022-09-09T10:31:25;20.94;66.06
20862;DHT22;10591;52.532;13.348;2022-09-09T10:36:29;21.16;65.44
20862;DHT22;10591;52.532;13.348;2022-09-09T10:39:03;21.15;65.79
20862;DHT22;10591;52.532;13.348;2022-09-09T10:41:39;21.16;65.30
20862;DHT22;10591;52.532;13.348;2022-09-09T10:52:46;21.43;64.00
20862;DHT22;10591;52.532;13.348;2022-09-09T10:55:23;21.56;63.32
20862;DHT22;10591;52.532;13.348;2022-09-09T10:57:58;21.71;63.02
20862;DHT22;10591;52.532;13.348;2022-09-09T11:03:19;21.59;63.13
20862;DHT22;10591;52.532;13.348;2022-09-09T11:05:49;21.53;62.50
20862;DHT22;10591;52.532;13.348;2022-09-09T11:08:24;21.52;62.79
20862;DHT22;10591;52.532;13.348;2022-09-09T11:11:22;21.66;62.51
20862;DHT22;10591;52.532;13.348;2022-09-09T11:14:00;21.58;62.62
20862;DHT22;10591;52.532;13.348;2022-09-09T11:16:53;21.46;63.16
20862;DHT22;10591;52.532;13.348;2022-09-09T11:19:24;21.62;63.24
20862;DHT22;10591;52.532;13.348;2022-09-09T11:21:55;21.52;63.20
20862;DHT22;10591;52.532;13.348;2022-09-09T11:24:37;21.88;62.78
20862;DHT22;10591;52.532;13.348;2022-09-09T11:27:15;22.15;61.08
20862;DHT22;10591;52.532;13.348;2022-09-09T11:32:47;25.78;53.50
20862;DHT22;10591;52.532;13.348;2022-09-09T11:38:45;31.67;41.52
20862;DHT22;10591;52.532;13.348;2022-09-09T11:41:32;31.40;39.80
20862;DHT22;10591;52.532;13.348;2022-09-09T11:43:51;29.79;43.39
20862;DHT22;10591;52.532;13.348;2022-09-09T11:46:33;29.84;42.92
20862;DHT22;10591;52.532;13.348;2022-09-09T11:49:06;30.47;41.94
20862;DHT22;10591;52.532;13.348;2022-09-09T11:51:38;30.30;40.69
20862;DHT22;10591;52.532;13.348;2022-09-09T11:54:32;28.26;43.99
20862;DHT22;10591;52.532;13.348;2022-09-09T11:57:04;30.76;39.53
20862;DHT22;10591;52.532;13.348;2022-09-09T11:59:35;32.50;36.71
20862;DHT22;10591;52.532;13.348;2022-09-09T12:02:12;34.33;34.22
20862;DHT22;10591;52.532;13.348;2022-09-09T12:07:35;34.59;33.49
20862;DHT22;10591;52.532;13.348;2022-09-09T12:10:34;32.98;35.06
20862;DHT22;10591;52.532;13.348;2022-09-09T12:13:19;31.62;37.54
20862;DHT22;10591;52.532;13.348;2022-09-09T12:15:54;30.56;39.34
20862;DHT22;10591;52.532;13.348;2022-09-09T12:18:33;28.19;44.19
20862;DHT22;10591;52.532;13.348;2022-09-09T12:21:13;27.60;45.42
20862;DHT22;10591;52.532;13.348;2022-09-09T12:26:41;26.86;46.72
20862;DHT22;10591;52.532;13.348;2022-09-09T12:32:07;25.37;48.76
20862;DHT22;10591;52.532;13.348;2022-09-09T12:37:52;24.62;50.25
20862;DHT22;10591;52.532;13.348;2022-09-09T12:40:41;24.09;50.85
20862;DHT22;10591;52.532;13.348;2022-09-09T12:42:57;24.31;52.00
20862;DHT22;10591;52.532;13.348;2022-09-09T12:45:32;24.12;53.11
20862;DHT22;10591;52.532;13.348;2022-09-09T12:48:09;24.14;53.27
20862;DHT22;10591;52.532;13.348;2022-09-09T12:50:49;24.17;52.83
20862;DHT22;10591;52.532;13.348;2022-09-09T12:53:24;24.11;53.33
20862;DHT22;10591;52.532;13.348;2022-09-09T12:56:06;23.92;52.80
20862;DHT22;10591;52.532;13.348;2022-09-09T12:58:44;24.18;52.83
20862;DHT22;10591;52.532;13.348;2022-09-09T13:01:27;24.17;52.20
20862;DHT22;10591;52.532;13.348;2022-09-09T13:03:58;23.90;51.24
20862;DHT22;10591;52.532;13.348;2022-09-09T13:06:31;23.54;51.73
20862;DHT22;10591;52.532;13.348;2022-09-09T13:09:02;23.41;52.66
20862;DHT22;10591;52.532;13.348;2022-09-09T13:11:41;23.36;52.31
20862;DHT22;10591;52.532;13.348;2022-09-09T13:14:24;23.00;52.98
20862;DHT22;10591;52.532;13.348;2022-09-09T13:16:57;22.91;54.42
20862;DHT22;10591;52.532;13.348;2022-09-09T13:19:31;22.80;54.21
20862;DHT22;10591;52.532;13.348;2022-09-09T13:25:05;22.66;55.12
20862;DHT22;10591;52.532;13.348;2022-09-09T13:27:40;22.61;55.61
20862;DHT22;10591;52.532;13.348;2022-09-09T13:30:27;22.63;55.61
20862;DHT22;10591;52.532;13.348;2022-09-09T13:38:23;22.46;55.99
20862;DHT22;10591;52.532;13.348;2022-09-09T13:41:00;22.54;55.75
20862;DHT22;10591;52.532;13.348;2022-09-09T13:43:44;22.42;56.60
20862;DHT22;10591;52.532;13.348;2022-09-09T13:46:31;22.52;56.59
20862;DHT22;10591;52.532;13.348;2022-09-09T13:51:43;23.01;55.79
20862;DHT22;10591;52.532;13.348;2022-09-09T13:54:17;23.32;55.28
20862;DHT22;10591;52.532;13.348;2022-09-09T13:56:48;23.40;53.44
20862;DHT22;10591;52.532;13.348;2022-09-09T13:59:20;23.32;54.96
20862;DHT22;10591;52.532;13.348;2022-09-09T14:01:50;23.22;55.58
20862;DHT22;10591;52.532;13.348;2022-09-09T14:04:21;23.12;55.25
20862;DHT22;10591;52.532;13.348;2022-09-09T14:06:52;23.27;54.96
20862;DHT22;10591;52.532;13.348;2022-09-09T14:09:22;23.47;54.30
20862;DHT22;10591;52.532;13.348;2022-09-09T14:11:53;23.48;54.18
20862;DHT22;10591;52.532;13.348;2022-09-09T14:14:24;23.57;54.41
20862;DHT22;10591;52.532;13.348;2022-09-09T14:16:55;23.45;53.36
20862;DHT22;10591;52.532;13.348;2022-09-09T14:19:25;23.75;53.37
20862;DHT22;10591;52.532;13.348;2022-09-09T14:21:55;23.63;53.13
20862;DHT22;10591;52.532;13.348;2022-09-09T14:24:26;23.33;53.41
20862;DHT22;10591;52.532;13.348;2022-09-09T14:26:57;23.22;54.02
20862;DHT22;10591;52.532;13.348;2022-09-09T14:29:27;23.13;54.26
20862;DHT22;10591;52.532;13.348;2022-09-09T14:31:58;22.96;54.33
20862;DHT22;10591;52.532;13.348;2022-09-09T14:34:30;22.88;55.22
20862;DHT22;10591;52.532;13.348;2022-09-09T14:37:02;22.82;55.55
20862;DHT22;10591;52.532;13.348;2022-09-09T14:39:33;22.86;55.46
20862;DHT22;10591;52.532;13.348;2022-09-09T14:42:03;22.99;54.91
20862;DHT22;10591;52.532;13.348;2022-09-09T14:44:34;22.89;54.41
20862;DHT22;10591;52.532;13.348;2022-09-09T14:47:06;22.80;55.30
20862;DHT22;10591;52.532;13.348;2022-09-09T14:49:38;22.70;55.13
20862;DHT22;10591;52.532;13.348;2022-09-09T14:52:10;22.55;55.05
20862;DHT22;10591;52.532;13.348;2022-09-09T14:54:41;22.56;54.77
20862;DHT22;10591;52.532;13.348;2022-09-09T14:57:11;22.44;55.59
20862;DHT22;10591;52.532;13.348;2022-09-09T14:59:41;22.52;54.48
20862;DHT22;10591;52.532;13.348;2022-09-09T15:02:13;22.49;54.97
20862;DHT22;10591;52.532;13.348;2022-09-09T15:04:43;22.41;55.09
20862;DHT22;10591;52.532;13.348;2022-09-09T15:07:15;22.32;55.20
20862;DHT22;10591;52.532;13.348;2022-09-09T15:09:47;22.32;55.69
20862;DHT22;10591;52.532;13.348;2022-09-09T15:12:18;22.46;55.34
20862;DHT22;10591;52.532;13.348;2022-09-09T15:14:49;22.44;55.80
20862;DHT22;10591;52.532;13.348;2022-09-09T15:17:21;22.52;57.16
20862;DHT22;10591;52.532;13.348;2022-09-09T15:19:54;22.75;57.02
20862;DHT22;10591;52.532;13.348;2022-09-09T15:22:24;22.70;57.90
20862;DHT22;10591;52.532;13.348;2022-09-09T15:24:57;22.60;57.33
20862;DHT22;10591;52.532;13.348;2022-09-09T15:27:26;22.38;57.88
20862;DHT22;10591;52.532;13.348;2022-09-09T15:29:58;22.19;58.31
20862;DHT22;10591;52.532;13.348;2022-09-09T15:32:30;21.98;58.79
20862;DHT22;10591;52.532;13.348;2022-09-09T15:35:02;21.85;58.72
20862;DHT22;10591;52.532;13.348;2022-09-09T15:37:33;21.66;59.35
20862;DHT22;10591;52.532;13.348;2022-09-09T15:40:03;21.68;59.69
20862;DHT22;10591;52.532;13.348;2022-09-09T15:42:34;21.60;59.94
20862;DHT22;10591;52.532;13.348;2022-09-09T15:45:05;21.52;59.66
20862;DHT22;10591;52.532;13.348;2022-09-09T15:47:36;21.42;61.02
20862;DHT22;10591;52.532;13.348;2022-09-09T15:50:06;21.41;61.82
20862;DHT22;10591;52.532;13.348;2022-09-09T15:52:37;21.22;62.21
20862;DHT22;10591;52.532;13.348;2022-09-09T15:55:08;21.14;65.21
20862;DHT22;10591;52.532;13.348;2022-09-09T15:57:38;21.01;65.96
20862;DHT22;10591;52.532;13.348;2022-09-09T16:00:10;20.95;65.46
20862;DHT22;10591;52.532;13.348;2022-09-09T16:02:42;20.90;65.74
20862;DHT22;10591;52.532;13.348;2022-09-09T16:05:12;20.79;66.38
20862;DHT22;10591;52.532;13.348;2022-09-09T16:07:43;20.78;66.53
20862;DHT22;10591;52.532;13.348;2022-09-09T16:10:14;20.75;64.82
20862;DHT22;10591;52.532;13.348;2022-09-09T16:12:45;20.84;64.84
20862;DHT22;10591;52.532;13.348;2022-09-09T16:15:16;20.90;66.81
20862;DHT22;10591;52.532;13.348;2022-09-09T16:17:46;20.90;65.28
20862;DHT22;10591;52.532;13.348;2022-09-09T16:20:17;20.94;64.51
20862;DHT22;10591;52.532;13.348;2022-09-09T16:22:48;20.97;64.48
20862;DHT22;10591;52.532;13.348;2022-09-09T16:25:18;21.02;63.47
20862;DHT22;10591;52.532;13.348;2022-09-09T16:27:49;20.98;63.78
20862;DHT22;10591;52.532;13.348;2022-09-09T16:30:20;21.02;62.55
20862;DHT22;10591;52.532;13.348;2022-09-09T16:32:51;20.99;63.32
20862;DHT22;10591;52.532;13.348;2022-09-09T16:35:22;20.98;64.46
20862;DHT22;10591;52.532;13.348;2022-09-09T16:37:53;20.92;65.60
20862;DHT22;10591;52.532;13.348;2022-09-09T16:40:23;20.88;64.99
20862;DHT22;10591;52.532;13.348;2022-09-09T16:42:53;20.88;63.86
20862;DHT22;10591;52.532;13.348;2022-09-09T16:45:24;20.88;63.41
20862;DHT22;10591;52.532;13.348;2022-09-09T16:47:55;20.89;63.24
20862;DHT22;10591;52.532;13.348;2022-09-09T16:50:26;20.76;64.68
20862;DHT22;10591;52.532;13.348;2022-09-09T16:52:56;20.72;64.53
20862;DHT22;10591;52.532;13.348;2022-09-09T16:55:27;20.67;65.36
20862;DHT22;10591;52.532;13.348;2022-09-09T16:57:59;20.56;66.78
20862;DHT22;10591;52.532;13.348;2022-09-09T17:00:29;20.47;67.02
20862;DHT22;10591;52.532;13.348;2022-09-09T17:03:00;20.41;66.89
20862;DHT22;10591;52.532;13.348;2022-09-09T17:05:31;20.34;66.52
20862;DHT22;10591;52.532;13.348;2022-09-09T17:08:02;20.30;66.21
20862;DHT22;10591;52.532;13.348;2022-09-09T17:10:34;20.18;67.34
20862;DHT22;10591;52.532;13.348;2022-09-09T17:13:04;20.10;69.64
20862;DHT22;10591;52.532;13.348;2022-09-09T17:15:40;19.97;69.56
20862;DHT22;10591;52.532;13.348;2022-09-09T17:18:13;19.89;68.67
20862;DHT22;10591;52.532;13.348;2022-09-09T17:20:49;19.74;67.69
20862;DHT22;10591;52.532;13.348;2022-09-09T17:23:16;19.68;68.88
20862;DHT22;10591;52.532;13.348;2022-09-09T17:25:55;19.73;65.77
20862;DHT22;10591;52.532;13.348;2022-09-09T17:28:20;19.74;65.49
20862;DHT22;10591;52.532;13.348;2022-09-09T17:30:52;19.78;65.35
20862;DHT22;10591;52.532;13.348;2022-09-09T17:33:23;19.76;64.54
20862;DHT22;10591;52.532;13.348;2022-09-09T17:35:55;19.66;67.42
20862;DHT22;10591;52.532;13.348;2022-09-09T17:38:27;19.56;67.60
20862;DHT22;10591;52.532;13.348;2022-09-09T17:41:09;19.52;68.69
20862;DHT22;10591;52.532;13.348;2022-09-09T17:43:35;19.46;69.12
20862;DHT22;10591;52.532;13.348;2022-09-09T17:46:14;19.42;68.73
20862;DHT22;10591;52.532;13.348;2022-09-09T17:48:42;19.35;69.30